Terminal Aerodrome Forecast
Issued by NWS Austin/San Antonio, TX

Home | Current Version | Previous Version | Text Only | Print | Product List | Glossary On
Versions: 1 2 3 4 5 6 7 8 9 10 11 12 13 14
000
FTUS44 KEWX 290540
TAFDRT
TAF
KDRT 290540Z 2906/3006 10005KT P6SM SCT250
     FM291000 10005KT P6SM BKN018
     FM291500 32010KT P6SM SCT250
     FM292200 31014G24KT P6SM BKN250=

USA.gov is the U.S. government's official web portal to all federal, state and local government web resources and services.